Check out our new BloomSky Weather System.

Active alerts


No alerts


Thunder radar  blitzortung!


Rain radar more information rain snow radar


Visit our other weather sites:

Template documentation
and downloads

And another site



Weather Underground History page Text

Daily Summary for November 15, 2017 Units:  English    Metric   Both
« Previous Day
Next Day »
Daily Weekly Monthly Yearly Custom
  High: Low: Average:
Temperature: TemperatureF °F 58.6 °F 70 °F
Dew Point: DewpointF °F 58.1 °F 64.5 °F
Humidity: Humidity % 60 % 84 %
Wind Speed: WindSpeedMPH mph 0.0 mph 1.2 mph
Wind Gust: WindSpeedGustMPH mph - -
Wind:- - SSE
Pressure: PressureIn in 29.97 in -
Precipitation: 0.00 in    
Historical Graphs
 
 
Tabular Data for November 15, 2017
Time Temperature Dew Point Pressure Wind Wind Speed Wind Gust Humidity Rainfall Rate (Hourly)
TemperatureF °F DewpointF °F PressureIn in Calm     Humidity % HourlyPrecipIn in
00:01 63.5 °F 61.7 °F 30.01 in SE 2.0 mph 4.0 mph 94 % 0.00 in
00:06 63.3 °F 61.5 °F 30.01 in ESE 1.0 mph 4.0 mph 94 % 0.00 in
00:11 63.5 °F 61.7 °F 30.01 in ESE 1.0 mph 2.0 mph 94 % 0.00 in
00:16 63.3 °F 61.5 °F 30.01 in SE 1.0 mph 3.0 mph 94 % 0.00 in
00:21 63.3 °F 61.5 °F 30.01 in SE 2.0 mph 3.0 mph 94 % 0.00 in
00:26 63.3 °F 61.5 °F 30.01 in Calm   3.0 mph 94 % 0.00 in
00:31 63.1 °F 61.3 °F 30.01 in Calm   3.0 mph 94 % 0.00 in
00:36 63.1 °F 61.7 °F 30.01 in SE 1.0 mph 3.0 mph 95 % 0.00 in
00:41 63.1 °F 61.7 °F 30.01 in Calm   2.0 mph 95 % 0.00 in
00:46 63.0 °F 61.5 °F 30.01 in Calm   2.0 mph 95 % 0.00 in
00:51 63.0 °F 61.5 °F 30.00 in Calm   2.0 mph 95 % 0.00 in
00:56 62.8 °F 61.3 °F 30.00 in Calm   1.0 mph 95 % 0.00 in
01:01 62.6 °F 61.2 °F 30.00 in Calm   1.0 mph 95 % 0.00 in
01:06 62.4 °F 61.0 °F 30.00 in Calm   1.0 mph 95 % 0.00 in
01:11 62.2 °F 60.8 °F 30.00 in Calm   1.0 mph 95 % 0.00 in
01:16 62.2 °F 60.8 °F 30.00 in Calm   1.0 mph 95 % 0.00 in
01:21 62.2 °F 61.2 °F 30.00 in Calm   1.0 mph 96 % 0.00 in
01:26 62.2 °F 61.2 °F 30.00 in Calm   1.0 mph 96 % 0.00 in
01:31 62.1 °F 61.0 °F 30.00 in Calm   1.0 mph 96 % 0.00 in
01:36 62.1 °F 61.0 °F 30.00 in Calm   1.0 mph 96 % 0.00 in
01:41 61.7 °F 60.6 °F 30.00 in Calm   1.0 mph 96 % 0.00 in
01:46 61.5 °F 60.4 °F 30.00 in Calm   1.0 mph 96 % 0.00 in
01:51 61.2 °F 60.1 °F 30.00 in Calm     96 % 0.00 in
01:56 61.0 °F 59.9 °F 30.00 in Calm     96 % 0.00 in
02:01 60.8 °F 59.7 °F 30.00 in Calm     96 % 0.00 in
02:06 60.6 °F 59.5 °F 30.00 in Calm     96 % 0.00 in
02:11 60.6 °F 59.7 °F 30.00 in Calm     97 % 0.00 in
02:16 60.4 °F 59.4 °F 30.00 in Calm     96 % 0.00 in
02:21 60.3 °F 59.2 °F 30.00 in Calm     96 % 0.00 in
02:26 59.9 °F 58.8 °F 29.99 in Calm     96 % 0.00 in
02:31 59.7 °F 58.8 °F 29.99 in Calm     97 % 0.00 in
02:36 60.1 °F 59.2 °F 29.99 in Calm     97 % 0.00 in
02:41 60.1 °F 59.2 °F 29.99 in Calm     97 % 0.00 in
02:46 60.1 °F 59.2 °F 29.99 in Calm   1.0 mph 97 % 0.00 in
02:51 60.1 °F 59.2 °F 29.99 in Calm   1.0 mph 97 % 0.00 in
02:56 60.3 °F 59.4 °F 29.99 in Calm   1.0 mph 97 % 0.00 in
03:01 60.3 °F 59.4 °F 29.99 in Calm   1.0 mph 97 % 0.00 in
03:02 60.3 °F 59.4 °F 29.99 in Calm   1.0 mph 97 % 0.00 in
03:07 60.1 °F 59.2 °F 29.99 in Calm     97 % 0.00 in
03:12 60.1 °F 59.2 °F 29.99 in Calm     97 % 0.00 in
03:17 59.7 °F 58.8 °F 29.99 in Calm     97 % 0.00 in
03:22 59.7 °F 58.8 °F 30.00 in Calm     97 % 0.00 in
03:27 59.5 °F 58.6 °F 30.00 in Calm     97 % 0.00 in
03:32 59.4 °F 58.5 °F 29.99 in Calm     97 % 0.00 in
03:37 59.5 °F 59.0 °F 29.99 in Calm     98 % 0.00 in
03:42 59.5 °F 59.0 °F 29.99 in Calm     98 % 0.00 in
03:47 59.5 °F 59.0 °F 29.99 in ESE 1.0 mph   98 % 0.00 in
03:52 59.5 °F 59.0 °F 29.99 in Calm   1.0 mph 98 % 0.00 in
03:57 59.5 °F 59.0 °F 29.99 in Calm   1.0 mph 98 % 0.00 in
04:02 59.5 °F 59.0 °F 29.99 in Calm   1.0 mph 98 % 0.00 in
04:07 59.5 °F 59.0 °F 29.99 in Calm     98 % 0.00 in
04:12 59.4 °F 58.8 °F 29.99 in Calm     98 % 0.00 in
04:17 59.4 °F 58.8 °F 29.99 in Calm     98 % 0.00 in
04:22 59.4 °F 58.8 °F 29.99 in Calm     98 % 0.00 in
04:27 59.2 °F 58.6 °F 29.99 in Calm     98 % 0.00 in
04:32 59.2 °F 58.6 °F 30.00 in Calm     98 % 0.00 in
04:37 59.2 °F 58.6 °F 29.99 in Calm     98 % 0.00 in
04:42 59.2 °F 58.6 °F 29.99 in Calm     98 % 0.00 in
04:47 59.2 °F 58.6 °F 29.99 in Calm     98 % 0.00 in
04:52 58.8 °F 58.3 °F 30.00 in Calm     98 % 0.00 in
04:57 58.8 °F 58.3 °F 29.99 in Calm     98 % 0.00 in
05:02 58.8 °F 58.3 °F 30.00 in Calm     98 % 0.00 in
05:07 58.8 °F 58.3 °F 30.00 in Calm     98 % 0.00 in
05:12 58.8 °F 58.3 °F 30.00 in Calm     98 % 0.00 in
05:17 58.8 °F 58.3 °F 29.99 in Calm     98 % 0.00 in
05:23 58.6 °F 58.1 °F 29.99 in Calm     98 % 0.00 in
05:28 58.6 °F 58.1 °F 29.99 in Calm     98 % 0.00 in
05:33 58.8 °F 58.5 °F 29.99 in Calm     99 % 0.00 in
05:38 58.8 °F 58.5 °F 29.99 in Calm   1.0 mph 99 % 0.00 in
05:43 58.8 °F 58.5 °F 29.99 in Calm   1.0 mph 99 % 0.00 in
05:48 58.8 °F 58.5 °F 29.99 in Calm   1.0 mph 99 % 0.00 in
05:53 58.8 °F 58.5 °F 29.99 in Calm   1.0 mph 99 % 0.00 in
05:58 59.0 °F 58.6 °F 29.99 in Calm   1.0 mph 99 % 0.00 in
06:03 59.0 °F 58.6 °F 30.00 in Calm   1.0 mph 99 % 0.00 in
06:08 59.2 °F 58.8 °F 30.00 in Calm   1.0 mph 99 % 0.00 in
06:13 59.4 °F 59.0 °F 30.00 in Calm   1.0 mph 99 % 0.00 in
06:18 59.4 °F 59.0 °F 30.00 in Calm   1.0 mph 99 % 0.00 in
06:23 59.5 °F 59.2 °F 30.00 in Calm   1.0 mph 99 % 0.00 in
06:28 59.7 °F 59.4 °F 30.00 in Calm   1.0 mph 99 % 0.00 in
06:33 59.7 °F 59.4 °F 30.00 in Calm   1.0 mph 99 % 0.00 in
06:38 59.7 °F 59.4 °F 30.00 in Calm   1.0 mph 99 % 0.00 in
06:43 59.9 °F 59.5 °F 30.00 in Calm   1.0 mph 99 % 0.00 in
06:48 59.9 °F 59.5 °F 30.00 in Calm   1.0 mph 99 % 0.00 in
06:53 60.1 °F 59.7 °F 30.01 in Calm   1.0 mph 99 % 0.00 in
06:58 60.1 °F 59.7 °F 30.00 in Calm   1.0 mph 99 % 0.00 in
07:03 60.1 °F 59.7 °F 30.01 in Calm   1.0 mph 99 % 0.00 in
07:08 60.1 °F 59.7 °F 30.01 in Calm   1.0 mph 99 % 0.00 in
07:13 60.1 °F 59.7 °F 30.01 in Calm   1.0 mph 99 % 0.00 in
07:18 60.3 °F 59.9 °F 30.01 in Calm   1.0 mph 99 % 0.00 in
07:23 60.4 °F 60.1 °F 30.01 in Calm   1.0 mph 99 % 0.00 in
07:28 60.6 °F 60.3 °F 30.01 in Calm   1.0 mph 99 % 0.00 in
07:33 61.0 °F 60.6 °F 30.01 in Calm   1.0 mph 99 % 0.00 in
07:38 61.2 °F 60.8 °F 30.02 in Calm   1.0 mph 99 % 0.00 in
07:43 61.9 °F 61.5 °F 30.02 in Calm   1.0 mph 99 % 0.00 in
07:48 62.4 °F 62.4 °F 30.02 in Calm   1.0 mph 100 % 0.00 in
07:53 63.0 °F 63.0 °F 30.02 in Calm   1.0 mph 100 % 0.00 in
07:58 63.3 °F 63.3 °F 30.02 in Calm   1.0 mph 100 % 0.00 in
08:03 63.9 °F 63.9 °F 30.03 in Calm   1.0 mph 100 % 0.00 in
08:08 64.2 °F 64.2 °F 30.03 in ESE 1.0 mph 1.0 mph 100 % 0.00 in
08:13 64.9 °F 64.9 °F 30.03 in Calm   2.0 mph 100 % 0.00 in
08:18 65.7 °F 65.7 °F 30.03 in SE 2.0 mph 2.0 mph 100 % 0.00 in
08:23 65.7 °F 65.7 °F 30.03 in Calm   2.0 mph 100 % 0.00 in
08:28 66.4 °F 66.4 °F 30.03 in Calm   2.0 mph 100 % 0.00 in
08:33 66.9 °F 66.9 °F 30.04 in SE 2.0 mph 2.0 mph 100 % 0.00 in
08:38 67.3 °F 66.9 °F 30.04 in Calm   3.0 mph 99 % 0.00 in
08:44 68.0 °F 67.6 °F 30.04 in SSE 1.0 mph 3.0 mph 99 % 0.00 in
08:49 68.5 °F 68.0 °F 30.04 in ESE 2.0 mph 3.0 mph 98 % 0.00 in
08:54 68.7 °F 67.3 °F 30.04 in ESE 2.0 mph 5.0 mph 95 % 0.00 in
08:59 69.6 °F 68.2 °F 30.04 in SSW 1.0 mph 5.0 mph 95 % 0.00 in
09:04 70.2 °F 67.6 °F 30.04 in SE 2.0 mph 5.0 mph 92 % 0.00 in
09:09 70.5 °F 67.5 °F 30.04 in South 3.0 mph 5.0 mph 90 % 0.00 in
09:14 71.1 °F 67.6 °F 30.04 in ENE 2.0 mph 5.0 mph 89 % 0.00 in
09:19 71.4 °F 67.6 °F 30.04 in SSW 3.0 mph 7.0 mph 88 % 0.00 in
09:24 72.0 °F 68.2 °F 30.04 in SE 3.0 mph 7.0 mph 88 % 0.00 in
09:27 72.1 °F 67.6 °F 30.04 in East 3.0 mph 7.0 mph 86 % 0.00 in
09:32 72.7 °F 67.8 °F 30.04 in SSE 4.0 mph 6.0 mph 85 % 0.00 in
09:37 72.9 °F 68.4 °F 30.04 in ESE 3.0 mph 6.0 mph 86 % 0.00 in
09:42 73.4 °F 68.2 °F 30.04 in South 3.0 mph 7.0 mph 84 % 0.00 in
09:47 73.6 °F 67.8 °F 30.04 in SSE 4.0 mph 7.0 mph 82 % 0.00 in
09:52 73.8 °F 67.6 °F 30.04 in SE 2.0 mph 7.0 mph 81 % 0.00 in
09:57 73.9 °F 67.8 °F 30.04 in SSE 4.0 mph 8.0 mph 81 % 0.00 in
10:02 74.3 °F 67.6 °F 30.04 in SSW 7.0 mph 8.0 mph 80 % 0.00 in
10:07 74.8 °F 67.8 °F 30.03 in SE 3.0 mph 9.0 mph 79 % 0.00 in
10:12 75.2 °F 67.8 °F 30.03 in SSE 4.0 mph 10.0 mph 78 % 0.00 in
10:17 75.6 °F 68.2 °F 30.03 in SSE 4.0 mph 10.0 mph 78 % 0.00 in
10:22 75.7 °F 67.6 °F 30.04 in SSE 5.0 mph 10.0 mph 76 % 0.00 in
10:27 75.9 °F 68.5 °F 30.04 in SSE 5.0 mph 10.0 mph 78 % 0.00 in
10:32 75.9 °F 67.8 °F 30.04 in SE 5.0 mph 10.0 mph 76 % 0.00 in
10:37 75.9 °F 68.2 °F 30.03 in SSE 3.0 mph 10.0 mph 77 % 0.00 in
10:42 76.3 °F 67.8 °F 30.03 in South 3.0 mph 9.0 mph 75 % 0.00 in
10:47 76.6 °F 68.5 °F 30.04 in SW 7.0 mph 10.0 mph 76 % 0.00 in
10:52 76.5 °F 67.6 °F 30.04 in South 3.0 mph 12.0 mph 74 % 0.00 in
10:57 76.3 °F 67.8 °F 30.03 in SSE 3.0 mph 12.0 mph 75 % 0.00 in
11:02 76.6 °F 68.5 °F 30.03 in SW 2.0 mph 12.0 mph 76 % 0.00 in
11:07 77.4 °F 68.0 °F 30.03 in East 2.0 mph 7.0 mph 73 % 0.00 in
11:12 77.4 °F 68.0 °F 30.03 in South 4.0 mph 7.0 mph 73 % 0.00 in
11:17 77.5 °F 67.5 °F 30.03 in SSE 3.0 mph 7.0 mph 71 % 0.00 in
11:22 78.1 °F 67.5 °F 30.03 in SSW 1.0 mph 8.0 mph 70 % 0.00 in
11:27 78.6 °F 68.0 °F 30.03 in SE 4.0 mph 8.0 mph 70 % 0.00 in
11:32 78.8 °F 68.2 °F 30.03 in SSW 3.0 mph 9.0 mph 70 % 0.00 in
11:37 79.2 °F 67.6 °F 30.03 in SSW 6.0 mph 9.0 mph 68 % 0.00 in
11:42 79.3 °F 68.4 °F 30.03 in SSE 5.0 mph 9.0 mph 69 % 0.00 in
11:47 79.2 °F 67.6 °F 30.03 in Calm   8.0 mph 68 % 0.00 in
11:52 79.2 °F 67.6 °F 30.02 in SW 1.0 mph 8.0 mph 68 % 0.00 in
11:57 79.7 °F 68.2 °F 30.02 in SW 1.0 mph 7.0 mph 68 % 0.00 in
12:02 80.1 °F 68.2 °F 30.02 in South 4.0 mph 9.0 mph 67 % 0.00 in
12:08 80.2 °F 66.9 °F 30.02 in SSW 3.0 mph 9.0 mph 64 % 0.00 in
12:13 80.2 °F 66.6 °F 30.02 in SE 2.0 mph 9.0 mph 63 % 0.00 in
12:18 80.4 °F 67.1 °F 30.02 in SE 4.0 mph 7.0 mph 64 % 0.00 in
12:23 80.4 °F 67.1 °F 30.01 in South 5.0 mph 7.0 mph 64 % 0.00 in
12:33 79.7 °F 66.4 °F 30.01 in SSW 3.0 mph 7.0 mph 64 % 0.00 in
12:38 79.3 °F 66.6 °F 30.01 in SSE 1.0 mph 7.0 mph 65 % 0.00 in
12:43 79.5 °F 66.7 °F 30.01 in Calm   6.0 mph 65 % 0.00 in
12:48 79.5 °F 66.7 °F 30.00 in South 2.0 mph 5.0 mph 65 % 0.00 in
12:53 79.5 °F 66.7 °F 30.00 in South 5.0 mph 5.0 mph 65 % 0.00 in
12:58 79.3 °F 66.6 °F 30.00 in SE 2.0 mph 6.0 mph 65 % 0.00 in
13:03 80.1 °F 66.7 °F 29.99 in South 2.0 mph 6.0 mph 64 % 0.00 in
13:08 80.1 °F 66.7 °F 29.99 in SW 1.0 mph 6.0 mph 64 % 0.00 in
13:13 79.9 °F 67.1 °F 29.99 in SW 1.0 mph 5.0 mph 65 % 0.00 in
13:18 79.9 °F 68.0 °F 29.99 in SSW 1.0 mph 5.0 mph 67 % 0.00 in
13:23 80.4 °F 67.1 °F 29.99 in ESE 4.0 mph 5.0 mph 64 % 0.00 in
13:28 80.6 °F 67.8 °F 29.98 in SSE 2.0 mph 8.0 mph 65 % 0.00 in
13:33 80.8 °F 66.9 °F 29.98 in Calm   8.0 mph 63 % 0.00 in
13:38 80.8 °F 66.6 °F 29.98 in SSW 4.0 mph 8.0 mph 62 % 0.00 in
13:43 80.8 °F 66.6 °F 29.98 in SSW 2.0 mph 7.0 mph 62 % 0.00 in
13:53 81.1 °F 66.0 °F 29.98 in SW 1.0 mph 7.0 mph 60 % 0.00 in
13:58 80.8 °F 65.7 °F 29.98 in SSE 1.0 mph 7.0 mph 60 % 0.00 in
14:03 80.4 °F 66.2 °F 29.97 in SSE 2.0 mph 6.0 mph 62 % 0.00 in
14:08 80.8 °F 66.6 °F 29.97 in East 1.0 mph 6.0 mph 62 % 0.00 in
14:13 80.8 °F 66.0 °F 29.98 in Calm   4.0 mph 61 % 0.00 in
14:18 81.0 °F 66.7 °F 29.97 in SW 3.0 mph 4.0 mph 62 % 0.00 in
14:23 80.8 °F 66.6 °F 29.97 in Calm   4.0 mph 62 % 0.00 in
14:28 80.8 °F 66.6 °F 29.97 in Calm   4.0 mph 62 % 0.00 in
14:33 80.8 °F 66.0 °F 29.98 in Calm   3.0 mph 61 % 0.00 in
14:38 80.8 °F 66.0 °F 29.97 in Calm   2.0 mph 61 % 0.00 in
14:43 80.6 °F 65.8 °F 29.97 in Calm   4.0 mph 61 % 0.00 in
14:48 81.0 °F 67.1 °F 29.98 in West 1.0 mph 4.0 mph 63 % 0.00 in
14:53 81.0 °F 65.8 °F 29.97 in NNW 1.0 mph 4.0 mph 60 % 0.00 in
14:57 80.6 °F 66.4 °F 29.97 in Calm   3.0 mph 62 % 0.00 in
15:02 80.8 °F 66.6 °F 29.98 in Calm   3.0 mph 62 % 0.00 in
15:07 80.8 °F 66.0 °F 29.98 in Calm   3.0 mph 61 % 0.00 in
15:12 80.4 °F 65.7 °F 29.97 in Calm   3.0 mph 61 % 0.00 in
15:17 80.4 °F 66.2 °F 29.98 in NE 1.0 mph 3.0 mph 62 % 0.00 in
15:22 80.2 °F 66.0 °F 29.97 in Calm   3.0 mph 62 % 0.00 in
15:27 80.1 °F 65.5 °F 29.98 in Calm   1.0 mph 61 % 0.00 in
15:33 80.1 °F 65.8 °F 29.98 in Calm   1.0 mph 62 % 0.00 in
15:38 80.1 °F 65.5 °F 29.98 in Calm   1.0 mph 61 % 0.00 in
15:43 80.1 °F 65.8 °F 29.98 in ESE 1.0 mph 1.0 mph 62 % 0.00 in
15:48 79.9 °F 66.2 °F 29.98 in Calm   2.0 mph 63 % 0.00 in
15:53 79.5 °F 65.8 °F 29.98 in North 1.0 mph 2.0 mph 63 % 0.00 in
15:58 79.3 °F 66.0 °F 29.98 in ENE 1.0 mph 2.0 mph 64 % 0.00 in
16:03 79.2 °F 66.7 °F 29.98 in NE 1.0 mph 2.0 mph 66 % 0.00 in
16:08 78.8 °F 66.9 °F 29.98 in East 1.0 mph 4.0 mph 67 % 0.00 in
16:13 78.6 °F 67.1 °F 29.98 in ESE 1.0 mph 4.0 mph 68 % 0.00 in
16:18 78.4 °F 66.9 °F 29.98 in Calm   4.0 mph 68 % 0.00 in
16:23 78.3 °F 67.3 °F 29.98 in Calm   3.0 mph 69 % 0.00 in
16:33 77.9 °F 67.3 °F 29.99 in Calm   3.0 mph 70 % 0.00 in
16:38 77.7 °F 67.1 °F 29.99 in East 1.0 mph 3.0 mph 70 % 0.00 in
16:43 77.5 °F 67.5 °F 29.99 in ESE 1.0 mph 6.0 mph 71 % 0.00 in
16:48 77.4 °F 67.6 °F 29.99 in Calm   6.0 mph 72 % 0.00 in
16:53 77.2 °F 67.5 °F 29.99 in East 1.0 mph 6.0 mph 72 % 0.00 in
16:58 77.0 °F 67.3 °F 29.99 in ESE 1.0 mph 4.0 mph 72 % 0.00 in
17:03 76.8 °F 67.5 °F 29.99 in East 2.0 mph 4.0 mph 73 % 0.00 in
17:08 76.6 °F 67.3 °F 29.99 in Calm   3.0 mph 73 % 0.00 in
17:13 76.6 °F 67.6 °F 30.00 in ESE 2.0 mph 3.0 mph 74 % 0.00 in
17:18 76.5 °F 67.6 °F 30.00 in SSE 2.0 mph 3.0 mph 74 % 0.00 in
17:23 76.3 °F 67.5 °F 30.00 in ESE 2.0 mph 3.0 mph 74 % 0.00 in
17:28 76.3 °F 67.8 °F 30.00 in Calm   4.0 mph 75 % 0.00 in
17:33 76.1 °F 67.6 °F 30.00 in ESE 2.0 mph 4.0 mph 75 % 0.00 in
17:38 75.9 °F 67.8 °F 30.00 in ESE 2.0 mph 4.0 mph 76 % 0.00 in
17:43 75.9 °F 67.8 °F 30.00 in SE 1.0 mph 3.0 mph 76 % 0.00 in
17:48 75.7 °F 67.6 °F 30.01 in Calm   2.0 mph 76 % 0.00 in
17:53 75.7 °F 67.6 °F 30.00 in SSE 2.0 mph 3.0 mph 76 % 0.00 in
17:58 75.6 °F 67.8 °F 30.00 in South 1.0 mph 5.0 mph 77 % 0.00 in
18:03 75.6 °F 67.8 °F 30.01 in Calm   5.0 mph 77 % 0.00 in
18:08 75.4 °F 67.6 °F 30.01 in SE 1.0 mph 5.0 mph 77 % 0.00 in
18:13 75.2 °F 67.5 °F 30.01 in Calm   4.0 mph 77 % 0.00 in
18:18 75.0 °F 67.6 °F 30.01 in SE 1.0 mph 4.0 mph 78 % 0.00 in
18:24 75.0 °F 67.6 °F 30.01 in SE 2.0 mph 4.0 mph 78 % 0.00 in
18:29 75.0 °F 67.6 °F 30.01 in SSE 1.0 mph 5.0 mph 78 % 0.00 in
18:34 74.8 °F 67.8 °F 30.01 in South 1.0 mph 5.0 mph 79 % 0.00 in
18:39 74.7 °F 67.6 °F 30.01 in SSE 2.0 mph 5.0 mph 79 % 0.00 in
18:44 74.7 °F 67.6 °F 30.02 in SSE 1.0 mph 5.0 mph 79 % 0.00 in
18:49 74.7 °F 68.0 °F 30.01 in SSE 4.0 mph 5.0 mph 80 % 0.00 in
18:54 74.7 °F 68.0 °F 30.02 in South 3.0 mph 5.0 mph 80 % 0.00 in
18:59 74.5 °F 67.8 °F 30.02 in South 2.0 mph 5.0 mph 80 % 0.00 in
19:04 74.3 °F 67.6 °F 30.02 in SE 1.0 mph 6.0 mph 80 % 0.00 in
19:09 74.1 °F 67.6 °F 30.02 in SE 2.0 mph 6.0 mph 80 % 0.00 in
19:14 74.1 °F 68.0 °F 30.02 in SSW 2.0 mph 6.0 mph 81 % 0.00 in
19:19 73.9 °F 67.8 °F 30.02 in SSW 3.0 mph 6.0 mph 81 % 0.00 in
19:24 73.9 °F 67.8 °F 30.02 in SSE 3.0 mph 6.0 mph 81 % 0.00 in
19:29 73.9 °F 67.8 °F 30.02 in SSE 2.0 mph 6.0 mph 81 % 0.00 in
19:34 73.8 °F 68.0 °F 30.02 in Calm   6.0 mph 82 % 0.00 in
19:39 73.8 °F 68.0 °F 30.02 in South 1.0 mph 6.0 mph 82 % 0.00 in
19:44 73.6 °F 67.8 °F 30.02 in SSE 4.0 mph 4.0 mph 82 % 0.00 in
19:49 73.6 °F 67.8 °F 30.03 in South 3.0 mph 7.0 mph 82 % 0.00 in
19:54 73.4 °F 68.0 °F 30.02 in SSE 4.0 mph 7.0 mph 83 % 0.00 in
19:59 73.4 °F 68.0 °F 30.03 in SE 5.0 mph 7.0 mph 83 % 0.00 in
20:04 73.2 °F 67.8 °F 30.03 in SE 2.0 mph 6.0 mph 83 % 0.00 in
20:09 73.2 °F 67.8 °F 30.03 in SSE 2.0 mph 6.0 mph 83 % 0.00 in
20:14 73.0 °F 67.6 °F 30.03 in Calm   6.0 mph 83 % 0.00 in
20:19 73.0 °F 68.0 °F 30.03 in SE 2.0 mph 4.0 mph 84 % 0.00 in
20:24 73.0 °F 68.0 °F 30.03 in SE 2.0 mph 4.0 mph 84 % 0.00 in
20:29 72.9 °F 67.8 °F 30.04 in ESE 2.0 mph 3.0 mph 84 % 0.00 in
20:34 72.9 °F 67.8 °F 30.04 in East 3.0 mph 3.0 mph 84 % 0.00 in
20:39 72.9 °F 67.8 °F 30.04 in SSE 2.0 mph 4.0 mph 84 % 0.00 in
20:44 72.7 °F 67.6 °F 30.04 in SSE 1.0 mph 4.0 mph 84 % 0.00 in
20:49 72.7 °F 67.8 °F 30.04 in South 3.0 mph 4.0 mph 85 % 0.00 in
20:54 72.7 °F 67.8 °F 30.04 in ESE 2.0 mph 4.0 mph 85 % 0.00 in
20:59 72.7 °F 67.8 °F 30.04 in SSE 1.0 mph 4.0 mph 85 % 0.00 in
21:04 72.7 °F 67.8 °F 30.04 in ESE 1.0 mph 4.0 mph 85 % 0.00 in
21:09 72.5 °F 67.8 °F 30.05 in South 2.0 mph 4.0 mph 85 % 0.00 in
21:15 72.3 °F 67.6 °F 30.05 in SE 1.0 mph 3.0 mph 85 % 0.00 in
21:20 72.3 °F 67.6 °F 30.05 in SE 1.0 mph 3.0 mph 85 % 0.00 in
21:22 72.3 °F 67.6 °F 30.05 in SE 1.0 mph 3.0 mph 85 % 0.00 in
21:23 72.3 °F 67.8 °F 30.05 in SE 3.0 mph 3.0 mph 86 % 0.00 in
21:28 72.3 °F 67.8 °F 30.05 in SE 3.0 mph 3.0 mph 86 % 0.00 in
21:33 72.3 °F 67.8 °F 30.05 in South 3.0 mph 3.0 mph 86 % 0.00 in
21:38 72.3 °F 67.8 °F 30.05 in SSE 2.0 mph 3.0 mph 86 % 0.00 in
21:43 72.1 °F 67.6 °F 30.05 in SE 1.0 mph 3.0 mph 86 % 0.00 in
21:48 72.1 °F 67.6 °F 30.05 in SE 1.0 mph 3.0 mph 86 % 0.00 in
21:58 72.1 °F 67.6 °F 30.06 in SSW 1.0 mph 3.0 mph 86 % 0.00 in
22:03 72.0 °F 67.8 °F 30.06 in SSW 1.0 mph 3.0 mph 87 % 0.00 in
22:08 71.8 °F 67.6 °F 30.06 in SW 1.0 mph 2.0 mph 87 % 0.00 in
22:13 71.8 °F 67.6 °F 30.06 in SW 2.0 mph 3.0 mph 87 % 0.00 in
22:18 71.6 °F 67.8 °F 30.06 in SW 3.0 mph 3.0 mph 88 % 0.00 in
22:23 71.4 °F 67.6 °F 30.06 in SSW 1.0 mph 3.0 mph 88 % 0.00 in
22:28 71.4 °F 67.6 °F 30.06 in Calm   3.0 mph 88 % 0.00 in
22:33 71.6 °F 67.8 °F 30.06 in Calm   3.0 mph 88 % 0.00 in
22:38 71.4 °F 67.6 °F 30.05 in SE 1.0 mph 3.0 mph 88 % 0.00 in
22:43 71.4 °F 67.6 °F 30.06 in SE 1.0 mph 3.0 mph 88 % 0.00 in
22:48 71.4 °F 67.6 °F 30.05 in Calm   2.0 mph 88 % 0.00 in
22:53 71.4 °F 67.6 °F 30.05 in SE 1.0 mph 2.0 mph 88 % 0.00 in
22:58 71.4 °F 67.6 °F 30.06 in Calm   3.0 mph 88 % 0.00 in
23:03 71.4 °F 67.6 °F 30.05 in East 2.0 mph 3.0 mph 88 % 0.00 in
23:08 71.2 °F 67.5 °F 30.06 in Calm   3.0 mph 88 % 0.00 in
23:13 71.2 °F 67.8 °F 30.06 in Calm   3.0 mph 89 % 0.00 in
23:18 71.1 °F 67.6 °F 30.06 in Calm   2.0 mph 89 % 0.00 in
23:23 71.1 °F 67.6 °F 30.06 in SSE 1.0 mph 1.0 mph 89 % 0.00 in
23:28 71.1 °F 67.6 °F 30.06 in Calm   2.0 mph 89 % 0.00 in
23:33 71.1 °F 67.6 °F 30.06 in Calm   2.0 mph 89 % 0.00 in
23:38 71.1 °F 68.0 °F 30.06 in SE 1.0 mph 2.0 mph 90 % 0.00 in
23:43 71.1 °F 68.0 °F 30.06 in ESE 2.0 mph 2.0 mph 90 % 0.00 in
23:48 71.1 °F 68.0 °F 30.06 in ESE 1.0 mph 2.0 mph 90 % 0.00 in
23:53 70.9 °F 67.8 °F 30.06 in ESE 1.0 mph 2.0 mph 90 % 0.00 in
23:58 70.9 °F 67.8 °F 30.06 in Calm   2.0 mph 90 % 0.00 in
Spring, Texas: Villages of Bridgestone
Compliments of Weather Underground - 2.75 mb

Script developed by  Jim McMurry - jmcmurry@mwt.net Adapted for the template by  Wim van der Kuil - Leuven-Template.eu

You find our weather info also at:

UK Metoffice

WeatherCloud

Weather Underground

Mid-South Weather Network

AWEKAS

Citizen Weather Observer Program (CWOP)

HAMweather, WeatherForYou, PWS Weather

Equipment we use:

Weather-station
Davis Vantage Vue

Weather-program
Meteohub

Weather-server
Debian 7.9 x86 (Guest)

Provider
DreamHost

Davis Vantage Vue

Meteohub

Debian 7.9 x86 (Guest)

DreamHost